createdAt,value
2019-04-14T00:00:38.301Z,0
2019-04-14T00:01:36.949Z,0
2019-04-14T00:02:35.797Z,0
2019-04-14T00:03:33.302Z,0
2019-04-14T00:04:31.848Z,0
2019-04-14T00:05:32.594Z,0
2019-04-14T00:06:28.956Z,0
2019-04-14T00:22:55.600Z,0
2019-04-14T00:23:54.435Z,0
2019-04-14T00:24:53.192Z,0
2019-04-14T00:25:52.218Z,0
2019-04-14T00:26:50.983Z,0
2019-04-14T00:27:48.502Z,0
2019-04-14T00:28:47.044Z,0
2019-04-14T00:29:45.803Z,0
2019-04-14T00:30:44.757Z,0
2019-04-14T00:31:43.311Z,0
2019-04-14T00:32:42.170Z,0
2019-04-14T00:33:40.958Z,0
2019-04-14T00:34:38.445Z,0
2019-04-14T00:35:37.034Z,0
2019-04-14T00:36:35.653Z,0
2019-04-14T00:37:34.227Z,0
2019-04-14T00:38:32.849Z,0
2019-04-14T00:39:31.678Z,0
2019-04-14T00:40:31.496Z,0
2019-04-14T00:41:39.336Z,0
2019-04-14T00:42:27.709Z,0
2019-04-14T00:43:26.613Z,0
2019-04-14T00:44:25.425Z,0
2019-04-14T00:45:33.657Z,0
2019-04-14T00:46:21.810Z,0
2019-04-14T00:47:20.403Z,0
2019-04-14T00:48:20.889Z,0
2019-04-14T00:49:17.983Z,0
2019-04-14T00:50:16.790Z,0
2019-04-14T00:51:15.555Z,0
2019-04-14T00:52:14.523Z,0
2019-04-14T00:53:12.188Z,0
2019-04-14T00:54:10.946Z,0
2019-04-14T00:55:09.677Z,0
2019-04-14T00:56:08.341Z,0
2019-04-14T00:57:07.297Z,0
2019-04-14T00:58:05.896Z,0
2019-04-14T00:59:04.685Z,0
2019-04-14T01:00:02.266Z,0
2019-04-14T01:01:00.993Z,0
2019-04-14T01:01:59.568Z,0
2019-04-14T01:02:58.091Z,0
2019-04-14T01:03:57.018Z,0
2019-04-14T01:04:55.507Z,0
2019-04-14T01:05:54.732Z,0
2019-04-14T01:06:53.304Z,0
2019-04-14T01:07:50.847Z,0
2019-04-14T01:08:49.626Z,0
2019-04-14T01:09:48.860Z,0
2019-04-14T01:10:47.636Z,0
2019-04-14T01:11:46.492Z,0
2019-04-14T01:12:45.212Z,0
2019-04-14T01:13:43.927Z,0
2019-04-14T01:14:41.267Z,0
2019-04-14T01:15:50.953Z,0
2019-04-14T01:16:38.617Z,0
2019-04-14T01:17:37.354Z,0
2019-04-14T01:18:36.423Z,0
2019-04-14T01:19:35.107Z,0
2019-04-14T01:20:33.849Z,0
2019-04-14T01:21:32.534Z,0
2019-04-14T01:22:31.360Z,0
2019-04-14T01:23:28.901Z,0
2019-04-14T01:24:27.498Z,0
2019-04-14T01:25:26.118Z,0
2019-04-14T01:26:24.685Z,0
2019-04-14T01:27:23.463Z,0
2019-04-14T01:28:22.259Z,0
2019-04-14T01:29:20.922Z,0
2019-04-14T01:30:19.863Z,0
2019-04-14T01:31:18.436Z,0
2019-04-14T01:32:17.374Z,0
2019-04-14T01:33:16.192Z,0
2019-04-14T01:34:15.072Z,0
2019-04-14T01:35:12.315Z,0
2019-04-14T01:36:10.857Z,0
2019-04-14T01:37:09.722Z,0
2019-04-14T01:38:08.259Z,0
2019-04-14T01:39:07.048Z,0
2019-04-14T01:40:05.525Z,0
2019-04-14T01:41:04.272Z,0
2019-04-14T01:42:02.849Z,0
2019-04-14T01:43:01.687Z,0
2019-04-14T01:44:00.303Z,0
2019-04-14T01:44:59.236Z,0
2019-04-14T01:46:05.029Z,0
2019-04-14T01:46:56.563Z,0
2019-04-14T01:47:55.212Z,0
2019-04-14T01:48:53.966Z,0
2019-04-14T01:49:51.238Z,0
2019-04-14T01:50:49.880Z,0
2019-04-14T01:51:48.485Z,0
2019-04-14T01:52:47.941Z,0
2019-04-14T01:53:46.755Z,0
2019-04-14T01:54:45.270Z,0
2019-04-14T01:55:43.802Z,0
2019-04-14T01:56:42.707Z,0
2019-04-14T01:57:41.373Z,0
2019-04-14T01:58:38.678Z,0
2019-04-14T01:59:37.599Z,0
2019-04-14T02:00:36.171Z,0
2019-04-14T02:01:34.733Z,0
2019-04-14T02:02:33.598Z,0
2019-04-14T02:03:32.272Z,0
2019-04-14T02:04:31.244Z,0
2019-04-14T02:05:29.943Z,0
2019-04-14T02:06:28.764Z,0
2019-04-14T02:07:27.548Z,0
2019-04-14T02:08:25.916Z,0
2019-04-14T02:09:23.460Z,0
2019-04-14T02:10:22.086Z,0
2019-04-14T02:11:20.814Z,0
2019-04-14T02:12:19.483Z,0
2019-04-14T02:13:18.239Z,0
2019-04-14T02:14:16.892Z,0
2019-04-14T02:15:15.503Z,0
2019-04-14T02:16:23.461Z,0
2019-04-14T02:17:13.218Z,0
2019-04-14T02:18:12.108Z,0
2019-04-14T02:19:10.896Z,0
2019-04-14T02:20:08.169Z,0
2019-04-14T02:21:06.715Z,0
2019-04-14T02:22:05.468Z,0
2019-04-14T02:23:04.100Z,0
2019-04-14T02:24:02.594Z,0
2019-04-14T02:25:01.574Z,0
2019-04-14T02:26:00.165Z,0
2019-04-14T02:26:59.116Z,0
2019-04-14T02:27:57.945Z,0
2019-04-14T02:28:57.059Z,0
2019-04-14T02:29:54.437Z,0
2019-04-14T02:31:03.022Z,0
2019-04-14T02:32:17.044Z,0
2019-04-14T02:33:23.326Z,0
2019-04-14T02:34:15.357Z,0
2019-04-14T02:35:20.407Z,0
2019-04-14T02:37:10.076Z,0
2019-04-14T02:38:11.725Z,0
2019-04-14T02:40:07.467Z,0
2019-04-14T02:41:10.464Z,0
2019-04-14T02:42:17.095Z,0
2019-04-14T02:43:02.483Z,0
2019-04-14T02:44:03.943Z,0
2019-04-14T02:44:59.613Z,0
2019-04-14T02:46:09.662Z,0
2019-04-14T02:46:52.870Z,0
2019-04-14T02:48:02.134Z,0
2019-04-14T02:49:01.956Z,0
2019-04-14T02:49:55.893Z,0
2019-04-14T02:50:47.450Z,0
2019-04-14T02:51:47.917Z,0
2019-04-14T02:53:49.483Z,0
2019-04-14T02:54:49.848Z,0
2019-04-14T02:55:48.353Z,0
2019-04-14T02:56:43.113Z,0
2019-04-14T02:57:37.168Z,0
2019-04-14T03:00:57.969Z,0
2019-04-14T03:01:37.032Z,0
2019-04-14T03:03:30.043Z,0
2019-04-14T03:06:25.115Z,0
2019-04-14T03:07:27.937Z,0
2019-04-14T03:10:24.307Z,0
2019-04-14T03:11:16.759Z,0
2019-04-14T03:12:24.301Z,0
2019-04-14T03:13:34.358Z,0
2019-04-14T03:14:21.161Z,0
2019-04-14T03:15:15.443Z,0
2019-04-14T03:17:20.901Z,0
2019-04-14T03:19:13.682Z,0
2019-04-14T03:21:13.011Z,0
2019-04-14T03:22:12.134Z,0
2019-04-14T03:23:04.737Z,0
2019-04-14T03:24:02.977Z,0
2019-04-14T03:24:50.126Z,0
2019-04-14T03:25:56.745Z,0
2019-04-14T03:27:03.955Z,0
2019-04-14T03:27:58.214Z,0
2019-04-14T03:28:50.622Z,0
2019-04-14T03:29:58.047Z,0
2019-04-14T03:31:08.006Z,0
2019-04-14T03:32:10.147Z,0
2019-04-14T03:33:16.945Z,0
2019-04-14T03:34:12.587Z,0
2019-04-14T03:35:03.167Z,0
2019-04-14T03:37:58.848Z,0
2019-04-14T03:38:44.633Z,0
2019-04-14T03:40:39.372Z,0
2019-04-14T03:41:36.498Z,0
2019-04-14T03:42:43.393Z,0
2019-04-14T03:44:41.012Z,0
2019-04-14T03:45:42.664Z,0
2019-04-14T03:46:33.057Z,0
2019-04-14T03:49:31.012Z,0
2019-04-14T03:50:27.992Z,0
2019-04-14T03:51:36.359Z,0
2019-04-14T03:52:31.131Z,0
2019-04-14T03:53:26.073Z,0
2019-04-14T03:54:15.072Z,0
2019-04-14T03:55:11.151Z,0
2019-04-14T03:55:58.260Z,0
2019-04-14T03:56:51.829Z,0
2019-04-14T03:57:50.392Z,0
2019-04-14T03:58:48.946Z,0
2019-04-14T03:59:47.809Z,0
2019-04-14T04:00:46.524Z,0
2019-04-14T04:01:45.674Z,0
2019-04-14T04:02:44.439Z,0
2019-04-14T04:03:43.484Z,0
2019-04-14T04:04:40.806Z,0
2019-04-14T04:05:39.450Z,0
2019-04-14T04:06:38.017Z,0
2019-04-14T04:07:36.566Z,0
2019-04-14T04:08:35.476Z,0
2019-04-14T04:09:34.335Z,0
2019-04-14T04:10:32.242Z,0
2019-04-14T04:11:30.745Z,0
2019-04-14T04:12:29.329Z,0
2019-04-14T04:13:28.137Z,0
2019-04-14T04:14:27.079Z,0
2019-04-14T04:15:25.622Z,0
2019-04-14T04:16:24.473Z,0
2019-04-14T04:17:23.284Z,0
2019-04-14T04:18:21.958Z,0
2019-04-14T04:19:20.942Z,4
2019-04-14T04:20:19.545Z,4
2019-04-14T04:21:17.000Z,0
2019-04-14T04:22:17.098Z,4
2019-04-14T04:23:14.484Z,4
2019-04-14T04:24:13.312Z,4
2019-04-14T04:25:11.904Z,4
2019-04-14T04:26:10.509Z,4
2019-04-14T04:27:09.059Z,8
2019-04-14T04:28:08.035Z,8
2019-04-14T04:29:06.975Z,8
2019-04-14T04:30:05.941Z,12
2019-04-14T04:31:04.521Z,12
2019-04-14T04:32:03.213Z,16
2019-04-14T04:33:02.222Z,16
2019-04-14T04:33:59.519Z,20
2019-04-14T04:34:58.097Z,24
2019-04-14T04:35:56.665Z,28
2019-04-14T04:36:55.367Z,32
2019-04-14T04:37:54.140Z,32
2019-04-14T04:38:53.135Z,36
2019-04-14T04:39:51.756Z,44
2019-04-14T04:40:50.744Z,44
2019-04-14T04:41:49.430Z,56
2019-04-14T04:42:48.286Z,56
2019-04-14T04:43:45.770Z,60
2019-04-14T04:44:44.318Z,60
2019-04-14T04:45:43.119Z,64
2019-04-14T04:46:41.765Z,56
2019-04-14T04:47:40.540Z,48
2019-04-14T04:48:39.265Z,44
2019-04-14T04:52:19.100Z,48
2019-04-14T04:53:17.970Z,52
2019-04-14T04:54:16.811Z,52
2019-04-14T04:55:15.510Z,56
2019-04-14T04:56:12.864Z,60
2019-04-14T04:57:11.412Z,68
2019-04-14T04:58:10.117Z,80
2019-04-14T04:59:09.682Z,92
2019-04-14T05:00:07.170Z,100
2019-04-14T05:01:05.782Z,100
2019-04-14T05:02:04.720Z,104
2019-04-14T05:03:03.646Z,104
2019-04-14T05:04:02.429Z,112
2019-04-14T05:05:01.208Z,116
2019-04-14T05:05:58.711Z,116
2019-04-14T05:06:57.292Z,116
2019-04-14T05:07:55.859Z,120
2019-04-14T05:08:54.470Z,124
2019-04-14T05:11:34.761Z,144
2019-04-14T05:12:33.328Z,148
2019-04-14T05:13:32.066Z,152
2019-04-14T05:14:30.635Z,152
2019-04-14T05:15:29.213Z,160
2019-04-14T05:16:28.181Z,180
2019-04-14T05:17:27.612Z,200
2019-04-14T05:18:25.005Z,212
2019-04-14T05:21:21.626Z,320
2019-04-14T05:22:20.799Z,352
2019-04-14T05:23:19.088Z,384
2019-04-14T05:24:17.916Z,420
2019-04-14T05:25:16.725Z,460
2019-04-14T05:26:15.476Z,504
2019-04-14T05:27:12.900Z,548
2019-04-14T05:28:11.707Z,572
2019-04-14T05:29:10.349Z,564
2019-04-14T05:30:09.038Z,564
2019-04-14T05:31:07.707Z,576
2019-04-14T05:32:06.627Z,580
2019-04-14T05:34:47.822Z,592
2019-04-14T05:35:45.217Z,596
2019-04-14T05:38:08.414Z,564
2019-04-14T05:39:06.805Z,564
2019-04-14T05:40:05.866Z,604
2019-04-14T05:41:04.715Z,612
2019-04-14T05:42:08.349Z,632
2019-04-14T05:43:00.846Z,684
2019-04-14T05:44:01.883Z,676
2019-04-14T05:44:58.312Z,632
2019-04-14T05:45:56.887Z,592
2019-04-14T05:46:55.738Z,604
2019-04-14T05:47:54.377Z,608
2019-04-14T05:48:53.595Z,616
2019-04-14T05:49:54.349Z,644
2019-04-14T05:50:51.134Z,684
2019-04-14T05:51:48.514Z,692
2019-04-14T05:52:47.171Z,656
2019-04-14T05:53:45.881Z,640
2019-04-14T05:54:44.695Z,664
2019-04-14T05:55:43.814Z,684
2019-04-14T05:56:42.547Z,736
2019-04-14T05:57:41.520Z,776
2019-04-14T06:01:36.469Z,888
2019-04-14T06:02:35.636Z,872
2019-04-14T06:03:34.792Z,848
2019-04-14T06:04:35.226Z,856
2019-04-14T06:05:33.994Z,888
2019-04-14T06:06:32.455Z,956
2019-04-14T06:07:31.670Z,956
2019-04-14T06:08:32.795Z,952
2019-04-14T06:09:32.438Z,936
2019-04-14T06:10:31.616Z,896
2019-04-14T06:11:30.160Z,876
2019-04-14T06:12:28.727Z,908
2019-04-14T06:13:27.366Z,972
2019-04-14T06:14:25.925Z,1008
2019-04-14T06:15:24.518Z,1028
2019-04-14T06:16:23.203Z,1016
2019-04-14T06:17:22.054Z,1052
2019-04-14T06:18:20.626Z,1140
2019-04-14T06:19:19.347Z,1240
2019-04-14T06:20:17.946Z,1368
2019-04-14T06:21:16.519Z,1480
2019-04-14T06:22:15.058Z,1480
2019-04-14T06:23:13.591Z,1484
2019-04-14T06:24:12.256Z,1440
2019-04-14T06:25:10.788Z,1432
2019-04-14T06:26:09.548Z,1432
2019-04-14T06:27:08.146Z,1460
2019-04-14T06:28:06.817Z,1420
2019-04-14T06:29:05.629Z,1340
2019-04-14T06:30:04.208Z,1344
2019-04-14T06:31:02.742Z,1460
2019-04-14T06:32:01.303Z,1556
2019-04-14T06:32:59.820Z,1552
2019-04-14T06:33:58.386Z,1356
2019-04-14T06:34:56.914Z,1452
2019-04-14T06:35:55.774Z,1592
2019-04-14T06:36:54.316Z,1552
2019-04-14T06:37:52.958Z,1648
2019-04-14T06:38:51.793Z,1812
2019-04-14T06:39:50.342Z,1840
2019-04-14T06:40:48.926Z,1928
2019-04-14T06:41:47.579Z,1936
2019-04-14T06:42:46.222Z,1832
2019-04-14T06:43:48.847Z,1816
2019-04-14T06:44:43.592Z,1836
2019-04-14T06:45:42.166Z,1896
2019-04-14T06:46:40.750Z,1964
2019-04-14T06:47:39.322Z,1984
2019-04-14T06:48:37.937Z,1848
2019-04-14T06:49:48.115Z,1656
2019-04-14T06:50:34.999Z,1500
2019-04-14T06:51:33.574Z,1480
2019-04-14T06:52:32.116Z,1476
2019-04-14T06:53:30.686Z,1508
2019-04-14T06:54:29.268Z,1408
2019-04-14T06:55:27.860Z,1332
2019-04-14T06:56:26.472Z,1464
2019-04-14T06:57:25.049Z,1564
2019-04-14T06:58:23.853Z,1636
2019-04-14T06:59:22.505Z,1484
2019-04-14T07:00:21.162Z,1676
2019-04-14T07:01:19.762Z,1852
2019-04-14T07:02:18.398Z,1876
2019-04-14T07:03:16.979Z,1932
2019-04-14T07:04:15.841Z,1956
2019-04-14T07:05:14.456Z,1984
2019-04-14T07:06:13.009Z,1964
2019-04-14T07:07:11.866Z,2192
2019-04-14T07:08:10.390Z,2588
2019-04-14T07:09:09.018Z,2936
2019-04-14T07:10:07.676Z,2984
2019-04-14T07:11:06.348Z,3244
2019-04-14T07:12:05.062Z,3528
2019-04-14T07:13:03.863Z,3976
2019-04-14T07:14:02.515Z,3844
2019-04-14T07:15:01.149Z,3936
2019-04-14T07:15:59.951Z,3904
2019-04-14T07:16:58.553Z,3880
2019-04-14T07:17:57.222Z,4064
2019-04-14T07:18:55.817Z,4796
2019-04-14T07:20:01.643Z,5272
2019-04-14T07:20:53.012Z,5236
2019-04-14T07:21:51.527Z,5240
2019-04-14T07:22:50.054Z,4992
2019-04-14T07:23:48.661Z,5436
2019-04-14T07:24:47.301Z,5952
2019-04-14T07:25:46.084Z,5632
2019-04-14T07:26:44.773Z,5996
2019-04-14T07:27:43.554Z,5624
2019-04-14T07:28:42.246Z,4784
2019-04-14T07:29:40.849Z,4784
2019-04-14T07:30:39.856Z,5148
2019-04-14T07:31:38.447Z,4836
2019-04-14T07:32:37.060Z,4084
2019-04-14T07:33:35.727Z,3356
2019-04-14T07:34:36.238Z,3256
2019-04-14T07:35:32.978Z,3772
2019-04-14T07:36:31.648Z,4180
2019-04-14T07:37:30.485Z,4104
2019-04-14T07:38:30.014Z,3760
2019-04-14T07:39:28.531Z,3744
2019-04-14T07:40:27.337Z,3320
2019-04-14T07:41:26.075Z,2900
2019-04-14T07:42:24.607Z,2872
2019-04-14T07:43:23.484Z,2988
2019-04-14T07:44:22.189Z,3316
2019-04-14T07:45:20.778Z,3320
2019-04-14T07:46:19.385Z,3360
2019-04-14T07:47:18.158Z,3024
2019-04-14T07:48:16.794Z,3132
2019-04-14T07:49:15.528Z,3308
2019-04-14T07:50:15.108Z,3384
2019-04-14T07:51:12.868Z,3200
2019-04-14T07:52:11.479Z,2788
2019-04-14T07:53:10.060Z,2596
2019-04-14T07:54:08.650Z,2440
2019-04-14T07:55:07.166Z,2356
2019-04-14T07:56:06.062Z,2544
2019-04-14T07:57:04.626Z,2644
2019-04-14T07:58:03.422Z,2596
2019-04-14T07:59:02.076Z,2328
2019-04-14T08:00:00.585Z,2128
2019-04-14T08:00:59.166Z,2132
2019-04-14T08:01:57.698Z,2412
2019-04-14T08:02:56.274Z,3008
2019-04-14T08:03:54.830Z,3392
2019-04-14T08:04:53.669Z,3208
2019-04-14T08:05:52.194Z,2924
2019-04-14T08:06:50.762Z,2808
2019-04-14T08:07:49.418Z,2860
2019-04-14T08:08:48.053Z,3208
2019-04-14T08:09:46.635Z,3640
2019-04-14T08:10:45.371Z,3784
2019-04-14T08:11:44.034Z,3524
2019-04-14T08:12:42.726Z,3396
2019-04-14T08:13:41.510Z,3472
2019-04-14T08:14:40.157Z,3704
2019-04-14T08:15:38.689Z,3864
2019-04-14T08:16:37.243Z,4264
2019-04-14T08:17:35.882Z,4664
2019-04-14T08:18:34.414Z,4644
2019-04-14T08:19:32.995Z,4532
2019-04-14T08:20:31.631Z,4236
2019-04-14T08:21:30.178Z,4064
2019-04-14T08:22:28.702Z,3904
2019-04-14T08:23:27.220Z,3608
2019-04-14T08:24:25.858Z,3332
2019-04-14T08:25:24.465Z,3092
2019-04-14T08:26:23.161Z,2828
2019-04-14T08:27:21.952Z,2784
2019-04-14T08:28:21.372Z,2820
2019-04-14T08:29:19.083Z,2888
2019-04-14T08:30:17.695Z,2920
2019-04-14T08:31:16.239Z,2924
2019-04-14T08:32:14.899Z,3064
2019-04-14T08:33:13.747Z,3340
2019-04-14T08:34:12.292Z,3504
2019-04-14T08:35:10.868Z,3608
2019-04-14T08:36:09.554Z,3852
2019-04-14T08:37:08.081Z,4008
2019-04-14T08:38:06.655Z,3872
2019-04-14T08:39:05.214Z,3668
2019-04-14T08:40:03.815Z,3388
2019-04-14T08:41:02.369Z,3240
2019-04-14T08:42:00.905Z,3128
2019-04-14T08:44:41.014Z,2884
2019-04-14T08:45:39.793Z,2908
2019-04-14T08:46:38.367Z,2944
2019-04-14T08:47:36.933Z,3028
2019-04-14T08:48:35.821Z,3188
2019-04-14T08:49:34.448Z,3412
2019-04-14T08:50:39.175Z,3472
2019-04-14T08:51:31.904Z,3292
2019-04-14T08:52:30.714Z,2996
2019-04-14T08:54:53.220Z,2900
2019-04-14T08:55:51.817Z,2964
2019-04-14T08:56:50.358Z,2880
2019-04-14T09:01:12.387Z,2768
2019-04-14T09:04:10.993Z,3768
2019-04-14T09:06:59.252Z,4384
2019-04-14T09:07:57.908Z,4280
2019-04-14T09:08:56.479Z,4204
2019-04-14T09:09:55.053Z,4768
2019-04-14T09:10:53.907Z,6448
2019-04-14T09:11:52.500Z,7824
2019-04-14T09:12:51.079Z,8048
2019-04-14T09:13:49.694Z,7900
2019-04-14T09:14:56.608Z,7772
2019-04-14T09:15:46.857Z,7732
2019-04-14T09:16:45.602Z,7476
2019-04-14T09:17:44.384Z,7424
2019-04-14T09:18:43.039Z,7648
2019-04-14T09:19:41.676Z,7588
2019-04-14T09:20:51.592Z,7420
2019-04-14T09:21:39.284Z,7624
2019-04-14T09:22:37.961Z,7648
2019-04-14T09:23:36.548Z,7728
2019-04-14T09:24:35.129Z,7888
2019-04-14T09:25:33.707Z,7492
2019-04-14T09:26:32.254Z,7004
2019-04-14T09:27:30.842Z,5956
2019-04-14T09:28:29.875Z,4932
2019-04-14T09:29:28.475Z,4640
2019-04-14T09:30:27.034Z,4264
2019-04-14T09:31:25.671Z,3848
2019-04-14T09:32:24.282Z,3704
2019-04-14T09:33:23.063Z,4084
2019-04-14T09:34:21.849Z,4236
2019-04-14T09:35:20.391Z,4272
2019-04-14T09:36:19.030Z,4136
2019-04-14T09:37:17.806Z,3836
2019-04-14T09:38:16.352Z,4024
2019-04-14T09:39:14.919Z,4060
2019-04-14T09:40:13.438Z,4020
2019-04-14T09:41:12.219Z,4340
2019-04-14T09:42:10.780Z,4700
2019-04-14T09:43:09.540Z,5052
2019-04-14T09:44:08.265Z,5716
2019-04-14T09:45:06.845Z,6496
2019-04-14T09:46:05.782Z,6940
2019-04-14T09:47:04.402Z,7112
2019-04-14T09:48:03.120Z,6564
2019-04-14T09:49:01.916Z,6144
2019-04-14T09:50:00.568Z,6644
2019-04-14T09:51:04.887Z,7204
2019-04-14T09:51:57.877Z,7468
2019-04-14T09:52:56.536Z,6640
2019-04-14T09:53:55.185Z,6088
2019-04-14T09:54:54.247Z,5960
2019-04-14T09:55:52.802Z,6100
2019-04-14T09:56:51.343Z,6412
2019-04-14T09:57:50.366Z,6148
2019-04-14T09:58:49.466Z,5684
2019-04-14T09:59:48.104Z,5616
2019-04-14T10:00:46.802Z,5608
2019-04-14T10:01:45.586Z,5472
2019-04-14T10:02:44.188Z,5296
2019-04-14T10:03:42.794Z,5536
2019-04-14T10:04:41.584Z,5880
2019-04-14T10:05:40.245Z,5704
2019-04-14T10:06:40.854Z,6100
2019-04-14T10:07:37.697Z,6808
2019-04-14T10:08:36.318Z,7160
2019-04-14T10:09:34.868Z,7300
2019-04-14T10:10:33.462Z,7328
2019-04-14T10:11:32.187Z,7136
2019-04-14T10:12:30.776Z,6636
2019-04-14T10:13:29.462Z,6232
2019-04-14T10:14:28.145Z,6596
2019-04-14T10:15:26.722Z,7104
2019-04-14T10:16:25.329Z,6904
2019-04-14T10:17:23.942Z,6572
2019-04-14T10:18:22.449Z,6212
2019-04-14T10:19:21.052Z,5852
2019-04-14T10:20:19.569Z,5992
2019-04-14T10:21:18.244Z,6228
2019-04-14T10:22:16.778Z,6236
2019-04-14T10:23:15.521Z,6124
2019-04-14T10:24:14.079Z,5888
2019-04-14T10:25:12.741Z,5472
2019-04-14T10:26:11.397Z,4952
2019-04-14T10:27:10.026Z,4584
2019-04-14T10:28:08.587Z,4496
2019-04-14T10:29:07.321Z,4684
2019-04-14T10:30:06.190Z,5072
2019-04-14T10:31:04.773Z,5596
2019-04-14T10:32:03.490Z,6084
2019-04-14T10:33:02.133Z,6468
2019-04-14T10:34:00.834Z,6908
2019-04-14T10:34:59.404Z,7248
2019-04-14T10:35:58.127Z,7536
2019-04-14T10:36:56.712Z,7812
2019-04-14T10:37:55.433Z,7872
2019-04-14T10:38:54.157Z,7964
2019-04-14T10:39:52.773Z,7920
2019-04-14T10:40:51.467Z,7784
2019-04-14T10:41:50.295Z,7676
2019-04-14T10:42:48.926Z,7648
2019-04-14T10:43:47.803Z,7656
2019-04-14T10:44:46.353Z,7816
2019-04-14T10:45:45.069Z,7880
2019-04-14T10:46:44.056Z,7784
2019-04-14T10:47:42.773Z,7708
2019-04-14T10:48:42.029Z,7392
2019-04-14T10:49:40.581Z,7128
2019-04-14T10:50:39.313Z,7248
2019-04-14T10:51:38.271Z,7748
2019-04-14T10:52:37.024Z,8140
2019-04-14T10:53:35.954Z,8004
2019-04-14T10:54:34.590Z,7796
2019-04-14T10:55:33.306Z,7416
2019-04-14T10:56:32.047Z,7004
2019-04-14T10:57:30.811Z,6764
2019-04-14T10:58:29.400Z,6728
2019-04-14T10:59:28.068Z,6956
2019-04-14T11:00:26.759Z,7028
2019-04-14T11:01:25.727Z,7152
2019-04-14T11:02:24.438Z,7232
2019-04-14T11:03:23.019Z,6752
2019-04-14T11:04:21.643Z,6120
2019-04-14T11:05:20.191Z,5768
2019-04-14T11:06:18.930Z,5608
2019-04-14T11:07:17.771Z,5492
2019-04-14T11:08:16.420Z,5472
2019-04-14T11:09:14.994Z,5552
2019-04-14T11:10:13.704Z,5628
2019-04-14T11:11:12.168Z,5572
2019-04-14T11:12:10.702Z,5484
2019-04-14T11:13:09.386Z,5444
2019-04-14T11:14:07.961Z,5568
2019-04-14T11:16:48.166Z,6476
2019-04-14T11:17:46.896Z,6572
2019-04-14T11:18:45.571Z,6800
2019-04-14T11:19:44.192Z,6972
2019-04-14T11:22:24.536Z,7340
2019-04-14T11:29:26.686Z,6956
2019-04-14T11:30:25.317Z,6580
2019-04-14T11:31:24.050Z,6768
2019-04-14T11:32:22.737Z,6264
2019-04-14T11:53:44.659Z,5888
2019-04-14T11:54:43.434Z,5868
2019-04-14T11:57:23.564Z,4820
2019-04-14T11:58:22.226Z,4644
2019-04-14T12:00:44.824Z,4508
2019-04-14T12:01:43.775Z,4452
2019-04-14T12:04:06.787Z,3432
2019-04-14T12:05:05.302Z,3176
2019-04-14T12:06:03.882Z,3080
2019-04-14T12:07:02.430Z,3276
2019-04-14T12:08:01.034Z,3344
2019-04-14T12:08:59.957Z,3540
2019-04-14T12:09:58.500Z,3852
2019-04-14T12:10:57.252Z,4428
2019-04-14T12:26:05.410Z,5068
2019-04-14T12:28:38.293Z,4712
2019-04-14T12:29:36.864Z,4372
2019-04-14T12:30:35.582Z,4380
2019-04-14T12:31:33.224Z,4592
2019-04-14T12:32:32.121Z,4868
2019-04-14T12:33:30.660Z,5060
2019-04-14T12:34:29.528Z,5056
2019-04-14T12:35:28.197Z,5056
2019-04-14T12:36:26.819Z,5084
2019-04-14T12:37:25.446Z,5016
2019-04-14T12:38:24.245Z,5072
2019-04-14T12:42:21.035Z,4780
2019-04-14T12:43:19.845Z,4896
2019-04-14T13:10:28.902Z,5716
2019-04-14T13:11:27.609Z,5768
2019-04-14T13:12:26.318Z,5772
2019-04-14T13:13:25.239Z,5696
2019-04-14T13:14:24.252Z,5500
2019-04-14T13:15:23.566Z,5176
2019-04-14T13:16:24.027Z,4764
2019-04-14T13:17:23.008Z,4440
2019-04-14T13:18:22.024Z,4180
2019-04-14T13:19:21.102Z,4040
2019-04-14T13:20:20.173Z,3968
2019-04-14T13:21:18.934Z,3976
2019-04-14T13:22:17.756Z,4052
2019-04-14T13:23:16.441Z,4124
2019-04-14T13:24:15.111Z,4236
2019-04-14T13:25:14.072Z,4320
2019-04-14T13:26:12.894Z,4504
2019-04-14T13:27:11.917Z,4632
2019-04-14T13:28:10.647Z,4796
2019-04-14T13:29:09.353Z,4912
2019-04-14T13:30:08.531Z,4972
2019-04-14T13:31:07.452Z,4988
2019-04-14T13:32:06.074Z,4976
2019-04-14T13:33:04.885Z,4868
2019-04-14T13:34:03.498Z,4768
2019-04-14T13:35:02.185Z,4560
2019-04-14T13:36:00.757Z,4444
2019-04-14T13:36:59.802Z,4356
2019-04-14T13:37:58.351Z,4152
2019-04-14T13:38:57.075Z,3976
2019-04-14T13:39:55.841Z,3872
2019-04-14T13:42:36.472Z,3896
2019-04-14T13:43:35.066Z,4092
2019-04-14T13:44:33.829Z,4348
2019-04-14T13:45:32.658Z,4596
2019-04-14T13:46:31.671Z,4720
2019-04-14T13:47:30.351Z,4636
2019-04-14T13:48:29.082Z,4756
2019-04-14T13:49:27.724Z,4576
2019-04-14T13:50:26.383Z,4300
2019-04-14T13:51:25.145Z,4192
2019-04-14T13:52:24.017Z,4120
2019-04-14T13:53:22.680Z,4112
2019-04-14T13:54:21.366Z,4156
2019-04-14T13:55:20.047Z,4188
2019-04-14T13:58:18.521Z,4660
2019-04-14T13:59:17.524Z,4984
2019-04-14T14:00:16.240Z,5144
2019-04-14T14:01:14.815Z,5168
2019-04-14T14:02:13.502Z,4928
2019-04-14T14:03:12.351Z,4904
2019-04-14T14:04:11.008Z,4740
2019-04-14T14:05:09.912Z,4484
2019-04-14T14:06:08.675Z,4308
2019-04-14T14:07:07.385Z,4108
2019-04-14T14:08:06.481Z,3576
2019-04-14T14:09:04.957Z,3036
2019-04-14T14:10:03.617Z,2676
2019-04-14T14:11:02.088Z,2480
2019-04-14T14:12:00.725Z,2404
2019-04-14T14:12:59.345Z,2368
2019-04-14T14:13:58.106Z,2364
2019-04-14T14:14:56.813Z,2416
2019-04-14T14:15:55.538Z,2516
2019-04-14T14:16:54.114Z,2624
2019-04-14T14:17:52.720Z,2764
2019-04-14T14:18:51.336Z,2956
2019-04-14T14:19:50.322Z,3208
2019-04-14T14:20:48.965Z,3440
2019-04-14T14:21:47.747Z,3640
2019-04-14T14:22:58.253Z,3828
2019-04-14T14:23:45.234Z,3952
2019-04-14T14:24:43.949Z,4012
2019-04-14T14:25:42.595Z,4036
2019-04-14T14:26:41.183Z,4052
2019-04-14T14:27:39.756Z,4052
2019-04-14T14:28:38.708Z,4060
2019-04-14T14:29:37.096Z,4096
2019-04-14T14:30:35.912Z,4120
2019-04-14T14:31:34.575Z,4112
2019-04-14T14:32:33.163Z,4136
2019-04-14T14:33:31.786Z,4080
2019-04-14T14:34:30.440Z,4004
2019-04-14T14:35:29.023Z,3884
2019-04-14T14:36:27.707Z,3748
2019-04-14T14:37:26.439Z,3680
2019-04-14T14:38:24.974Z,3612
2019-04-14T14:39:23.826Z,3540
2019-04-14T14:40:22.450Z,3412
2019-04-14T14:41:21.076Z,3312
2019-04-14T14:42:19.849Z,3204
2019-04-14T14:43:18.499Z,3048
2019-04-14T14:44:17.079Z,2976
2019-04-14T14:45:15.712Z,2948
2019-04-14T14:46:14.271Z,2880
2019-04-14T14:47:12.907Z,2808
2019-04-14T14:48:11.510Z,2736
2019-04-14T14:49:10.088Z,2596
2019-04-14T14:50:08.655Z,2416
2019-04-14T14:51:07.270Z,2396
2019-04-14T14:52:06.135Z,2436
2019-04-14T14:53:11.777Z,2380
2019-04-14T14:54:03.278Z,2232
2019-04-14T14:55:02.134Z,2164
2019-04-14T14:56:00.753Z,2100
2019-04-14T14:56:59.328Z,2080
2019-04-14T14:57:58.150Z,2100
2019-04-14T14:58:56.727Z,2144
2019-04-14T14:59:55.418Z,2220
2019-04-14T15:00:54.133Z,2344
2019-04-14T15:01:52.783Z,2476
2019-04-14T15:02:51.353Z,2612
2019-04-14T15:03:49.986Z,2752
2019-04-14T15:04:48.590Z,2848
2019-04-14T15:05:47.176Z,2944
2019-04-14T15:06:45.841Z,3060
2019-04-14T15:07:44.377Z,3096
2019-04-14T15:08:42.924Z,3136
2019-04-14T15:09:41.561Z,3180
2019-04-14T15:10:40.263Z,3236
2019-04-14T15:11:38.773Z,3260
2019-04-14T15:12:37.418Z,3208
2019-04-14T15:13:35.964Z,3232
2019-04-14T15:14:34.498Z,3244
2019-04-14T15:15:33.020Z,3256
2019-04-14T15:16:31.557Z,3252
2019-04-14T15:17:30.118Z,3220
2019-04-14T15:18:28.654Z,3160
2019-04-14T15:19:27.221Z,3100
2019-04-14T15:20:26.086Z,2968
2019-04-14T15:21:24.644Z,2876
2019-04-14T15:22:23.201Z,2844
2019-04-14T15:25:03.320Z,2984
2019-04-14T15:26:01.981Z,3052
2019-04-14T15:27:00.528Z,3124
2019-04-14T15:27:59.151Z,2984
2019-04-14T15:28:57.756Z,2828
2019-04-14T15:29:56.324Z,2692
2019-04-14T15:30:54.882Z,2588
2019-04-14T15:43:41.539Z,2304
2019-04-14T15:44:40.278Z,2316
2019-04-14T15:45:38.815Z,2372
2019-04-14T15:46:37.404Z,2420
2019-04-14T15:47:36.210Z,2512
2019-04-14T15:48:34.758Z,2548
2019-04-14T15:49:33.322Z,2552
2019-04-14T15:50:31.934Z,2576
2019-04-14T15:51:30.580Z,2624
2019-04-14T15:52:29.224Z,2652
2019-04-14T15:53:37.598Z,2660
2019-04-14T15:54:26.674Z,2644
2019-04-14T15:55:25.256Z,2576
2019-04-14T15:56:23.907Z,2440
2019-04-14T15:59:04.130Z,2360
2019-04-14T16:00:02.850Z,2328
2019-04-14T16:02:25.753Z,2140
2019-04-14T16:27:47.484Z,2192
2019-04-14T16:28:46.232Z,2164